sensor_id;sensor_type;location;lat;lon;timestamp;P1;durP1;ratioP1;P2;durP2;ratioP2
30127;SDS011;16942;53.196;6.592;2022-12-24T00:01:38;26.13;;;13.50;;
30127;SDS011;16942;53.196;6.592;2022-12-24T00:04:04;21.90;;;12.70;;
30127;SDS011;16942;53.196;6.592;2022-12-24T00:06:30;22.40;;;12.27;;
30127;SDS011;16942;53.196;6.592;2022-12-24T00:08:56;21.87;;;12.33;;
30127;SDS011;16942;53.196;6.592;2022-12-24T00:11:22;26.87;;;13.77;;
30127;SDS011;16942;53.196;6.592;2022-12-24T00:13:48;22.47;;;12.30;;
30127;SDS011;16942;53.196;6.592;2022-12-24T00:16:14;22.67;;;12.80;;
30127;SDS011;16942;53.196;6.592;2022-12-24T00:18:40;22.50;;;12.17;;
30127;SDS011;16942;53.196;6.592;2022-12-24T00:21:06;22.60;;;12.33;;
30127;SDS011;16942;53.196;6.592;2022-12-24T00:23:32;21.17;;;11.67;;
30127;SDS011;16942;53.196;6.592;2022-12-24T00:25:58;23.10;;;12.13;;
30127;SDS011;16942;53.196;6.592;2022-12-24T00:28:24;23.73;;;12.00;;
30127;SDS011;16942;53.196;6.592;2022-12-24T00:30:50;20.50;;;11.73;;
30127;SDS011;16942;53.196;6.592;2022-12-24T00:33:16;24.50;;;11.97;;
30127;SDS011;16942;53.196;6.592;2022-12-24T00:35:42;23.07;;;12.50;;
30127;SDS011;16942;53.196;6.592;2022-12-24T00:38:08;20.63;;;11.97;;
30127;SDS011;16942;53.196;6.592;2022-12-24T00:40:34;25.10;;;12.23;;
30127;SDS011;16942;53.196;6.592;2022-12-24T00:43:00;23.27;;;12.80;;
30127;SDS011;16942;53.196;6.592;2022-12-24T00:45:26;27.77;;;12.13;;
30127;SDS011;16942;53.196;6.592;2022-12-24T00:47:52;22.77;;;12.80;;
30127;SDS011;16942;53.196;6.592;2022-12-24T00:50:18;23.13;;;12.40;;
30127;SDS011;16942;53.196;6.592;2022-12-24T00:52:44;22.37;;;11.27;;
30127;SDS011;16942;53.196;6.592;2022-12-24T00:55:10;33.93;;;17.27;;
30127;SDS011;16942;53.196;6.592;2022-12-24T00:57:36;36.27;;;17.73;;
30127;SDS011;16942;53.196;6.592;2022-12-24T01:00:03;50.27;;;22.47;;
30127;SDS011;16942;53.196;6.592;2022-12-24T01:02:29;47.00;;;21.00;;
30127;SDS011;16942;53.196;6.592;2022-12-24T01:04:55;40.80;;;19.23;;
30127;SDS011;16942;53.196;6.592;2022-12-24T01:07:38;39.27;;;18.17;;
30127;SDS011;16942;53.196;6.592;2022-12-24T01:10:04;34.70;;;18.13;;
30127;SDS011;16942;53.196;6.592;2022-12-24T01:12:30;34.63;;;17.27;;
30127;SDS011;16942;53.196;6.592;2022-12-24T01:14:57;41.90;;;19.97;;
30127;SDS011;16942;53.196;6.592;2022-12-24T01:17:23;39.87;;;19.37;;
30127;SDS011;16942;53.196;6.592;2022-12-24T01:19:49;39.37;;;18.90;;
30127;SDS011;16942;53.196;6.592;2022-12-24T01:22:15;39.60;;;20.07;;
30127;SDS011;16942;53.196;6.592;2022-12-24T01:24:41;37.83;;;18.93;;
30127;SDS011;16942;53.196;6.592;2022-12-24T01:27:07;28.80;;;15.40;;
30127;SDS011;16942;53.196;6.592;2022-12-24T01:29:33;24.90;;;13.33;;
30127;SDS011;16942;53.196;6.592;2022-12-24T01:31:59;27.13;;;13.17;;
30127;SDS011;16942;53.196;6.592;2022-12-24T01:34:25;21.53;;;12.20;;
30127;SDS011;16942;53.196;6.592;2022-12-24T01:36:51;24.50;;;13.20;;
30127;SDS011;16942;53.196;6.592;2022-12-24T01:39:17;19.67;;;11.63;;
30127;SDS011;16942;53.196;6.592;2022-12-24T01:41:43;20.80;;;12.03;;
30127;SDS011;16942;53.196;6.592;2022-12-24T01:44:29;26.13;;;12.90;;
30127;SDS011;16942;53.196;6.592;2022-12-24T01:47:17;21.43;;;11.77;;
30127;SDS011;16942;53.196;6.592;2022-12-24T01:49:43;23.40;;;12.53;;
30127;SDS011;16942;53.196;6.592;2022-12-24T01:52:12;22.17;;;12.43;;
30127;SDS011;16942;53.196;6.592;2022-12-24T01:54:47;26.17;;;12.83;;
30127;SDS011;16942;53.196;6.592;2022-12-24T01:57:16;22.53;;;12.63;;
30127;SDS011;16942;53.196;6.592;2022-12-24T01:59:43;21.70;;;11.60;;
30127;SDS011;16942;53.196;6.592;2022-12-24T02:02:11;22.40;;;13.60;;
30127;SDS011;16942;53.196;6.592;2022-12-24T02:07:03;20.10;;;12.23;;
30127;SDS011;16942;53.196;6.592;2022-12-24T02:09:29;25.23;;;12.93;;
30127;SDS011;16942;53.196;6.592;2022-12-24T02:11:57;21.97;;;12.20;;
30127;SDS011;16942;53.196;6.592;2022-12-24T02:14:23;22.33;;;12.07;;
30127;SDS011;16942;53.196;6.592;2022-12-24T02:22:17;20.53;;;11.67;;
30127;SDS011;16942;53.196;6.592;2022-12-24T02:24:53;21.97;;;11.77;;
30127;SDS011;16942;53.196;6.592;2022-12-24T02:33:03;22.67;;;12.57;;
30127;SDS011;16942;53.196;6.592;2022-12-24T02:37:37;20.53;;;11.50;;
30127;SDS011;16942;53.196;6.592;2022-12-24T02:42:36;24.60;;;13.43;;
30127;SDS011;16942;53.196;6.592;2022-12-24T02:45:04;25.50;;;12.63;;
30127;SDS011;16942;53.196;6.592;2022-12-24T02:47:31;23.53;;;12.43;;
30127;SDS011;16942;53.196;6.592;2022-12-24T02:49:59;21.33;;;12.07;;
30127;SDS011;16942;53.196;6.592;2022-12-24T02:52:35;20.30;;;11.93;;
30127;SDS011;16942;53.196;6.592;2022-12-24T02:55:03;23.93;;;12.57;;
30127;SDS011;16942;53.196;6.592;2022-12-24T02:58:20;22.73;;;11.63;;
30127;SDS011;16942;53.196;6.592;2022-12-24T03:00:17;23.00;;;12.53;;
30127;SDS011;16942;53.196;6.592;2022-12-24T03:08:02;21.80;;;12.67;;
30127;SDS011;16942;53.196;6.592;2022-12-24T03:10:43;27.13;;;13.67;;
30127;SDS011;16942;53.196;6.592;2022-12-24T03:13:15;28.40;;;14.03;;
30127;SDS011;16942;53.196;6.592;2022-12-24T03:15:41;25.67;;;14.20;;
30127;SDS011;16942;53.196;6.592;2022-12-24T03:18:09;24.03;;;12.73;;
30127;SDS011;16942;53.196;6.592;2022-12-24T03:20:37;25.37;;;13.80;;
30127;SDS011;16942;53.196;6.592;2022-12-24T03:23:03;22.87;;;13.17;;
30127;SDS011;16942;53.196;6.592;2022-12-24T03:25:29;26.50;;;13.80;;
30127;SDS011;16942;53.196;6.592;2022-12-24T03:27:57;26.03;;;14.13;;
30127;SDS011;16942;53.196;6.592;2022-12-24T03:30:23;24.43;;;13.60;;
30127;SDS011;16942;53.196;6.592;2022-12-24T03:32:50;22.00;;;12.27;;
30127;SDS011;16942;53.196;6.592;2022-12-24T03:35:16;24.00;;;12.30;;
30127;SDS011;16942;53.196;6.592;2022-12-24T03:37:42;20.70;;;11.77;;
30127;SDS011;16942;53.196;6.592;2022-12-24T03:40:09;21.70;;;11.60;;
30127;SDS011;16942;53.196;6.592;2022-12-24T03:42:35;23.90;;;11.13;;
30127;SDS011;16942;53.196;6.592;2022-12-24T03:45:01;20.03;;;10.10;;
30127;SDS011;16942;53.196;6.592;2022-12-24T03:47:27;23.67;;;9.93;;
30127;SDS011;16942;53.196;6.592;2022-12-24T03:49:53;19.97;;;8.20;;
30127;SDS011;16942;53.196;6.592;2022-12-24T03:52:19;19.13;;;7.70;;
30127;SDS011;16942;53.196;6.592;2022-12-24T03:54:45;26.43;;;9.33;;
30127;SDS011;16942;53.196;6.592;2022-12-24T03:57:11;19.23;;;8.07;;
30127;SDS011;16942;53.196;6.592;2022-12-24T03:59:37;18.93;;;8.30;;
30127;SDS011;16942;53.196;6.592;2022-12-24T04:02:03;19.13;;;8.13;;
30127;SDS011;16942;53.196;6.592;2022-12-24T04:04:29;22.03;;;8.13;;
30127;SDS011;16942;53.196;6.592;2022-12-24T04:06:57;17.03;;;7.63;;
30127;SDS011;16942;53.196;6.592;2022-12-24T04:09:23;19.73;;;8.80;;
30127;SDS011;16942;53.196;6.592;2022-12-24T04:11:49;24.10;;;9.00;;
30127;SDS011;16942;53.196;6.592;2022-12-24T04:14:15;22.07;;;8.63;;
30127;SDS011;16942;53.196;6.592;2022-12-24T04:16:41;24.30;;;9.00;;
30127;SDS011;16942;53.196;6.592;2022-12-24T04:19:07;16.23;;;8.30;;
30127;SDS011;16942;53.196;6.592;2022-12-24T04:21:33;22.83;;;8.77;;
30127;SDS011;16942;53.196;6.592;2022-12-24T04:23:59;28.97;;;10.60;;
30127;SDS011;16942;53.196;6.592;2022-12-24T04:26:25;22.27;;;8.90;;
30127;SDS011;16942;53.196;6.592;2022-12-24T04:28:51;24.07;;;7.93;;
30127;SDS011;16942;53.196;6.592;2022-12-24T04:31:17;16.70;;;7.37;;
30127;SDS011;16942;53.196;6.592;2022-12-24T04:33:44;24.33;;;7.90;;
30127;SDS011;16942;53.196;6.592;2022-12-24T04:36:14;31.60;;;7.70;;
30127;SDS011;16942;53.196;6.592;2022-12-24T04:38:41;27.63;;;7.23;;
30127;SDS011;16942;53.196;6.592;2022-12-24T04:41:17;21.63;;;6.50;;
30127;SDS011;16942;53.196;6.592;2022-12-24T04:43:43;27.57;;;5.83;;
30127;SDS011;16942;53.196;6.592;2022-12-24T04:46:13;25.43;;;5.77;;
30127;SDS011;16942;53.196;6.592;2022-12-24T04:48:41;31.33;;;5.23;;
30127;SDS011;16942;53.196;6.592;2022-12-24T04:51:08;34.23;;;5.43;;
30127;SDS011;16942;53.196;6.592;2022-12-24T04:53:34;37.43;;;5.20;;
30127;SDS011;16942;53.196;6.592;2022-12-24T04:56:00;28.43;;;4.83;;
30127;SDS011;16942;53.196;6.592;2022-12-24T04:58:27;28.07;;;5.07;;
30127;SDS011;16942;53.196;6.592;2022-12-24T05:00:53;48.60;;;4.83;;
30127;SDS011;16942;53.196;6.592;2022-12-24T05:03:19;31.80;;;4.03;;
30127;SDS011;16942;53.196;6.592;2022-12-24T05:05:45;31.40;;;4.57;;
30127;SDS011;16942;53.196;6.592;2022-12-24T05:08:11;45.33;;;4.77;;
30127;SDS011;16942;53.196;6.592;2022-12-24T05:10:37;35.37;;;4.53;;
30127;SDS011;16942;53.196;6.592;2022-12-24T05:13:03;35.40;;;4.83;;
30127;SDS011;16942;53.196;6.592;2022-12-24T05:15:29;47.47;;;4.87;;
30127;SDS011;16942;53.196;6.592;2022-12-24T05:17:55;36.93;;;5.57;;
30127;SDS011;16942;53.196;6.592;2022-12-24T05:20:22;38.33;;;5.27;;
30127;SDS011;16942;53.196;6.592;2022-12-24T05:22:48;29.03;;;4.90;;
30127;SDS011;16942;53.196;6.592;2022-12-24T05:25:35;24.03;;;3.70;;
30127;SDS011;16942;53.196;6.592;2022-12-24T05:28:21;45.17;;;6.53;;
30127;SDS011;16942;53.196;6.592;2022-12-24T05:30:48;34.70;;;5.50;;
30127;SDS011;16942;53.196;6.592;2022-12-24T05:33:14;37.37;;;5.97;;
30127;SDS011;16942;53.196;6.592;2022-12-24T05:35:40;37.00;;;4.60;;
30127;SDS011;16942;53.196;6.592;2022-12-24T05:38:06;24.90;;;4.50;;
30127;SDS011;16942;53.196;6.592;2022-12-24T05:40:32;39.77;;;4.97;;
30127;SDS011;16942;53.196;6.592;2022-12-24T05:42:58;23.23;;;4.40;;
30127;SDS011;16942;53.196;6.592;2022-12-24T05:45:24;37.67;;;4.87;;
30127;SDS011;16942;53.196;6.592;2022-12-24T05:47:50;28.93;;;5.23;;
30127;SDS011;16942;53.196;6.592;2022-12-24T05:50:16;27.47;;;4.23;;
30127;SDS011;16942;53.196;6.592;2022-12-24T05:52:42;28.43;;;6.07;;
30127;SDS011;16942;53.196;6.592;2022-12-24T05:55:08;36.20;;;5.50;;
30127;SDS011;16942;53.196;6.592;2022-12-24T05:57:34;31.23;;;4.27;;
30127;SDS011;16942;53.196;6.592;2022-12-24T06:00:00;25.13;;;4.50;;
30127;SDS011;16942;53.196;6.592;2022-12-24T06:02:26;34.17;;;5.03;;
30127;SDS011;16942;53.196;6.592;2022-12-24T06:04:52;47.07;;;5.53;;
30127;SDS011;16942;53.196;6.592;2022-12-24T06:07:18;41.80;;;5.83;;
30127;SDS011;16942;53.196;6.592;2022-12-24T06:09:44;40.60;;;5.40;;
30127;SDS011;16942;53.196;6.592;2022-12-24T06:12:10;27.10;;;4.20;;
30127;SDS011;16942;53.196;6.592;2022-12-24T06:14:36;33.60;;;5.27;;
30127;SDS011;16942;53.196;6.592;2022-12-24T06:17:02;29.60;;;5.67;;
30127;SDS011;16942;53.196;6.592;2022-12-24T06:19:28;37.00;;;5.23;;
30127;SDS011;16942;53.196;6.592;2022-12-24T06:21:54;30.40;;;5.03;;
30127;SDS011;16942;53.196;6.592;2022-12-24T06:24:20;32.80;;;4.80;;
30127;SDS011;16942;53.196;6.592;2022-12-24T06:26:46;22.90;;;5.93;;
30127;SDS011;16942;53.196;6.592;2022-12-24T06:29:12;41.27;;;6.10;;
30127;SDS011;16942;53.196;6.592;2022-12-24T06:31:38;44.77;;;5.17;;
30127;SDS011;16942;53.196;6.592;2022-12-24T06:34:04;33.40;;;4.93;;
30127;SDS011;16942;53.196;6.592;2022-12-24T06:36:30;37.20;;;5.90;;
30127;SDS011;16942;53.196;6.592;2022-12-24T06:38:56;34.60;;;4.50;;
30127;SDS011;16942;53.196;6.592;2022-12-24T06:41:22;35.37;;;5.87;;
30127;SDS011;16942;53.196;6.592;2022-12-24T06:43:49;30.47;;;4.87;;
30127;SDS011;16942;53.196;6.592;2022-12-24T06:46:16;32.37;;;4.33;;
30127;SDS011;16942;53.196;6.592;2022-12-24T06:48:43;38.90;;;5.43;;
30127;SDS011;16942;53.196;6.592;2022-12-24T06:51:09;35.47;;;4.30;;
30127;SDS011;16942;53.196;6.592;2022-12-24T06:53:36;39.60;;;5.53;;
30127;SDS011;16942;53.196;6.592;2022-12-24T06:56:06;29.93;;;5.63;;
30127;SDS011;16942;53.196;6.592;2022-12-24T06:58:32;27.30;;;4.43;;
30127;SDS011;16942;53.196;6.592;2022-12-24T07:01:02;37.80;;;5.20;;
30127;SDS011;16942;53.196;6.592;2022-12-24T07:03:29;35.60;;;4.97;;
30127;SDS011;16942;53.196;6.592;2022-12-24T07:05:55;49.63;;;6.30;;
30127;SDS011;16942;53.196;6.592;2022-12-24T07:08:21;35.60;;;5.03;;
30127;SDS011;16942;53.196;6.592;2022-12-24T07:10:47;34.90;;;4.93;;
30127;SDS011;16942;53.196;6.592;2022-12-24T07:13:13;31.67;;;4.63;;
30127;SDS011;16942;53.196;6.592;2022-12-24T07:15:39;40.53;;;6.33;;
30127;SDS011;16942;53.196;6.592;2022-12-24T07:18:05;35.03;;;5.50;;
30127;SDS011;16942;53.196;6.592;2022-12-24T07:20:31;37.40;;;4.87;;
30127;SDS011;16942;53.196;6.592;2022-12-24T07:22:57;36.77;;;5.10;;
30127;SDS011;16942;53.196;6.592;2022-12-24T07:25:23;30.17;;;4.87;;
30127;SDS011;16942;53.196;6.592;2022-12-24T07:27:49;38.43;;;4.87;;
30127;SDS011;16942;53.196;6.592;2022-12-24T07:30:15;36.50;;;4.83;;
30127;SDS011;16942;53.196;6.592;2022-12-24T07:32:42;38.03;;;4.70;;
30127;SDS011;16942;53.196;6.592;2022-12-24T07:35:08;39.30;;;5.33;;
30127;SDS011;16942;53.196;6.592;2022-12-24T07:37:34;31.83;;;4.67;;
30127;SDS011;16942;53.196;6.592;2022-12-24T07:40:00;34.13;;;4.17;;
30127;SDS011;16942;53.196;6.592;2022-12-24T07:42:26;34.40;;;5.07;;
30127;SDS011;16942;53.196;6.592;2022-12-24T07:44:52;45.27;;;5.80;;
30127;SDS011;16942;53.196;6.592;2022-12-24T07:47:18;31.47;;;4.60;;
30127;SDS011;16942;53.196;6.592;2022-12-24T07:49:44;34.53;;;5.03;;
30127;SDS011;16942;53.196;6.592;2022-12-24T07:52:10;34.03;;;6.70;;
30127;SDS011;16942;53.196;6.592;2022-12-24T07:54:36;45.47;;;6.23;;
30127;SDS011;16942;53.196;6.592;2022-12-24T07:57:02;38.70;;;4.53;;
30127;SDS011;16942;53.196;6.592;2022-12-24T07:59:28;45.93;;;6.40;;
30127;SDS011;16942;53.196;6.592;2022-12-24T08:01:54;25.53;;;4.67;;
30127;SDS011;16942;53.196;6.592;2022-12-24T08:04:20;36.03;;;6.13;;
30127;SDS011;16942;53.196;6.592;2022-12-24T08:06:46;37.57;;;4.77;;
30127;SDS011;16942;53.196;6.592;2022-12-24T08:09:12;27.47;;;4.87;;
30127;SDS011;16942;53.196;6.592;2022-12-24T08:11:39;31.23;;;4.77;;
30127;SDS011;16942;53.196;6.592;2022-12-24T08:14:05;35.13;;;4.80;;
30127;SDS011;16942;53.196;6.592;2022-12-24T08:16:31;39.97;;;4.60;;
30127;SDS011;16942;53.196;6.592;2022-12-24T08:18:57;34.23;;;6.10;;
30127;SDS011;16942;53.196;6.592;2022-12-24T08:21:23;43.27;;;5.30;;
30127;SDS011;16942;53.196;6.592;2022-12-24T08:23:49;29.77;;;4.10;;
30127;SDS011;16942;53.196;6.592;2022-12-24T08:26:18;36.10;;;4.90;;
30127;SDS011;16942;53.196;6.592;2022-12-24T08:28:44;35.37;;;6.17;;
30127;SDS011;16942;53.196;6.592;2022-12-24T08:31:10;32.53;;;5.17;;
30127;SDS011;16942;53.196;6.592;2022-12-24T08:33:36;36.87;;;4.93;;
30127;SDS011;16942;53.196;6.592;2022-12-24T08:36:02;30.53;;;5.80;;
30127;SDS011;16942;53.196;6.592;2022-12-24T08:38:28;38.43;;;6.23;;
30127;SDS011;16942;53.196;6.592;2022-12-24T08:40:55;26.57;;;4.80;;
30127;SDS011;16942;53.196;6.592;2022-12-24T08:43:21;32.80;;;5.23;;
30127;SDS011;16942;53.196;6.592;2022-12-24T08:45:49;35.60;;;5.70;;
30127;SDS011;16942;53.196;6.592;2022-12-24T08:48:16;27.53;;;5.70;;
30127;SDS011;16942;53.196;6.592;2022-12-24T08:50:42;27.83;;;5.63;;
30127;SDS011;16942;53.196;6.592;2022-12-24T08:53:08;33.40;;;4.60;;
30127;SDS011;16942;53.196;6.592;2022-12-24T08:55:35;25.93;;;4.80;;
30127;SDS011;16942;53.196;6.592;2022-12-24T08:58:01;33.13;;;5.23;;
30127;SDS011;16942;53.196;6.592;2022-12-24T09:00:27;41.40;;;5.70;;
30127;SDS011;16942;53.196;6.592;2022-12-24T09:02:54;42.73;;;5.47;;
30127;SDS011;16942;53.196;6.592;2022-12-24T09:05:20;34.17;;;5.80;;
30127;SDS011;16942;53.196;6.592;2022-12-24T09:07:46;26.17;;;4.47;;
30127;SDS011;16942;53.196;6.592;2022-12-24T09:10:12;47.40;;;6.83;;
30127;SDS011;16942;53.196;6.592;2022-12-24T09:12:38;25.17;;;5.37;;
30127;SDS011;16942;53.196;6.592;2022-12-24T09:15:04;24.63;;;5.63;;
30127;SDS011;16942;53.196;6.592;2022-12-24T09:17:32;28.63;;;4.73;;
30127;SDS011;16942;53.196;6.592;2022-12-24T09:19:58;30.63;;;5.80;;
30127;SDS011;16942;53.196;6.592;2022-12-24T09:22:24;30.63;;;4.73;;
30127;SDS011;16942;53.196;6.592;2022-12-24T09:24:52;38.63;;;6.07;;
30127;SDS011;16942;53.196;6.592;2022-12-24T09:27:18;23.83;;;5.10;;
30127;SDS011;16942;53.196;6.592;2022-12-24T09:29:44;31.00;;;4.80;;
30127;SDS011;16942;53.196;6.592;2022-12-24T09:32:10;29.17;;;5.03;;
30127;SDS011;16942;53.196;6.592;2022-12-24T09:34:36;33.13;;;5.87;;
30127;SDS011;16942;53.196;6.592;2022-12-24T09:37:02;29.33;;;4.83;;
30127;SDS011;16942;53.196;6.592;2022-12-24T09:39:28;24.67;;;4.87;;
30127;SDS011;16942;53.196;6.592;2022-12-24T09:42:12;39.20;;;5.63;;
30127;SDS011;16942;53.196;6.592;2022-12-24T09:52:51;37.47;;;5.50;;
30127;SDS011;16942;53.196;6.592;2022-12-24T09:57:44;29.00;;;4.77;;
30127;SDS011;16942;53.196;6.592;2022-12-24T10:00:15;31.10;;;4.27;;
30127;SDS011;16942;53.196;6.592;2022-12-24T10:02:43;29.07;;;4.83;;
30127;SDS011;16942;53.196;6.592;2022-12-24T10:05:13;45.07;;;4.90;;
30127;SDS011;16942;53.196;6.592;2022-12-24T10:12:53;35.67;;;5.17;;
30127;SDS011;16942;53.196;6.592;2022-12-24T10:15:23;25.33;;;4.33;;
30127;SDS011;16942;53.196;6.592;2022-12-24T10:18:00;29.27;;;4.30;;
30127;SDS011;16942;53.196;6.592;2022-12-24T10:27:57;30.57;;;5.07;;
30127;SDS011;16942;53.196;6.592;2022-12-24T10:30:25;33.17;;;5.40;;
30127;SDS011;16942;53.196;6.592;2022-12-24T10:32:52;33.23;;;5.90;;
30127;SDS011;16942;53.196;6.592;2022-12-24T10:35:21;25.20;;;5.27;;
30127;SDS011;16942;53.196;6.592;2022-12-24T10:37:48;29.93;;;5.07;;
30127;SDS011;16942;53.196;6.592;2022-12-24T10:43:13;31.07;;;5.70;;
30127;SDS011;16942;53.196;6.592;2022-12-24T10:45:41;40.93;;;5.70;;
30127;SDS011;16942;53.196;6.592;2022-12-24T10:48:08;35.63;;;5.50;;
30127;SDS011;16942;53.196;6.592;2022-12-24T10:50:39;20.40;;;4.57;;
30127;SDS011;16942;53.196;6.592;2022-12-24T10:53:11;25.97;;;4.90;;
30127;SDS011;16942;53.196;6.592;2022-12-24T10:55:38;25.23;;;5.57;;
30127;SDS011;16942;53.196;6.592;2022-12-24T10:58:04;29.67;;;5.10;;
30127;SDS011;16942;53.196;6.592;2022-12-24T11:00:31;26.67;;;5.30;;
30127;SDS011;16942;53.196;6.592;2022-12-24T11:03:40;35.40;;;6.13;;
30127;SDS011;16942;53.196;6.592;2022-12-24T11:05:58;22.30;;;4.23;;
30127;SDS011;16942;53.196;6.592;2022-12-24T11:08:24;31.30;;;6.33;;
30127;SDS011;16942;53.196;6.592;2022-12-24T11:10:55;27.10;;;5.03;;
30127;SDS011;16942;53.196;6.592;2022-12-24T11:13:22;24.43;;;5.03;;
30127;SDS011;16942;53.196;6.592;2022-12-24T11:15:59;24.33;;;3.73;;
30127;SDS011;16942;53.196;6.592;2022-12-24T11:18:26;21.73;;;4.47;;
30127;SDS011;16942;53.196;6.592;2022-12-24T11:20:52;25.97;;;5.07;;
30127;SDS011;16942;53.196;6.592;2022-12-24T11:23:18;25.87;;;4.93;;
30127;SDS011;16942;53.196;6.592;2022-12-24T11:25:46;30.40;;;5.70;;
30127;SDS011;16942;53.196;6.592;2022-12-24T11:28:20;28.53;;;5.43;;
30127;SDS011;16942;53.196;6.592;2022-12-24T11:33:25;25.80;;;4.47;;
30127;SDS011;16942;53.196;6.592;2022-12-24T11:35:55;22.87;;;4.90;;
30127;SDS011;16942;53.196;6.592;2022-12-24T11:38:23;24.57;;;4.10;;
30127;SDS011;16942;53.196;6.592;2022-12-24T11:40:56;25.77;;;4.00;;
30127;SDS011;16942;53.196;6.592;2022-12-24T11:43:23;26.70;;;4.57;;
30127;SDS011;16942;53.196;6.592;2022-12-24T11:45:53;27.60;;;3.63;;
30127;SDS011;16942;53.196;6.592;2022-12-24T11:48:32;28.47;;;4.77;;
30127;SDS011;16942;53.196;6.592;2022-12-24T11:50:59;35.13;;;4.93;;
30127;SDS011;16942;53.196;6.592;2022-12-24T11:53:37;21.07;;;3.63;;
30127;SDS011;16942;53.196;6.592;2022-12-24T11:56:07;25.70;;;3.90;;
30127;SDS011;16942;53.196;6.592;2022-12-24T12:01:25;28.70;;;4.33;;
30127;SDS011;16942;53.196;6.592;2022-12-24T12:04:05;28.93;;;4.83;;
30127;SDS011;16942;53.196;6.592;2022-12-24T12:06:34;24.87;;;5.97;;
30127;SDS011;16942;53.196;6.592;2022-12-24T12:09:04;23.53;;;4.17;;
30127;SDS011;16942;53.196;6.592;2022-12-24T12:11:32;21.80;;;4.23;;
30127;SDS011;16942;53.196;6.592;2022-12-24T12:13:59;28.03;;;3.83;;
30127;SDS011;16942;53.196;6.592;2022-12-24T12:16:28;20.07;;;4.60;;
30127;SDS011;16942;53.196;6.592;2022-12-24T12:19:15;39.77;;;5.60;;
30127;SDS011;16942;53.196;6.592;2022-12-24T12:21:43;38.47;;;6.27;;
30127;SDS011;16942;53.196;6.592;2022-12-24T12:24:12;17.87;;;3.60;;
30127;SDS011;16942;53.196;6.592;2022-12-24T12:26:39;18.80;;;3.33;;
30127;SDS011;16942;53.196;6.592;2022-12-24T12:29:13;24.47;;;3.30;;
30127;SDS011;16942;53.196;6.592;2022-12-24T12:31:47;17.13;;;3.70;;
30127;SDS011;16942;53.196;6.592;2022-12-24T12:36:53;28.13;;;3.40;;
30127;SDS011;16942;53.196;6.592;2022-12-24T12:39:21;21.53;;;3.80;;
30127;SDS011;16942;53.196;6.592;2022-12-24T12:46:53;14.67;;;2.83;;
30127;SDS011;16942;53.196;6.592;2022-12-24T12:57:09;26.83;;;4.07;;
30127;SDS011;16942;53.196;6.592;2022-12-24T13:18:02;22.30;;;3.60;;
30127;SDS011;16942;53.196;6.592;2022-12-24T13:20:40;24.13;;;3.67;;
30127;SDS011;16942;53.196;6.592;2022-12-24T13:23:14;17.77;;;3.77;;
30127;SDS011;16942;53.196;6.592;2022-12-24T13:25:45;15.37;;;2.93;;
30127;SDS011;16942;53.196;6.592;2022-12-24T13:30:48;26.13;;;3.83;;
30127;SDS011;16942;53.196;6.592;2022-12-24T13:36:00;19.57;;;3.40;;
30127;SDS011;16942;53.196;6.592;2022-12-24T13:40:53;20.83;;;2.70;;
30127;SDS011;16942;53.196;6.592;2022-12-24T13:43:20;18.77;;;3.47;;
30127;SDS011;16942;53.196;6.592;2022-12-24T13:45:47;19.40;;;3.00;;
30127;SDS011;16942;53.196;6.592;2022-12-24T13:48:20;16.17;;;3.03;;
30127;SDS011;16942;53.196;6.592;2022-12-24T13:55:50;17.60;;;3.83;;
30127;SDS011;16942;53.196;6.592;2022-12-24T13:58:17;24.10;;;2.70;;
30127;SDS011;16942;53.196;6.592;2022-12-24T14:00:56;23.70;;;4.13;;
30127;SDS011;16942;53.196;6.592;2022-12-24T14:05:54;23.87;;;3.53;;
30127;SDS011;16942;53.196;6.592;2022-12-24T14:16:06;19.83;;;4.10;;
30127;SDS011;16942;53.196;6.592;2022-12-24T14:18:44;24.07;;;3.77;;
30127;SDS011;16942;53.196;6.592;2022-12-24T14:21:20;17.67;;;2.93;;
30127;SDS011;16942;53.196;6.592;2022-12-24T14:23:51;32.47;;;4.20;;
30127;SDS011;16942;53.196;6.592;2022-12-24T14:26:20;19.90;;;4.00;;
30127;SDS011;16942;53.196;6.592;2022-12-24T14:28:52;21.17;;;4.70;;
30127;SDS011;16942;53.196;6.592;2022-12-24T14:31:19;19.73;;;3.33;;
30127;SDS011;16942;53.196;6.592;2022-12-24T14:33:45;22.83;;;3.60;;
30127;SDS011;16942;53.196;6.592;2022-12-24T14:36:11;16.77;;;3.27;;
30127;SDS011;16942;53.196;6.592;2022-12-24T14:38:39;21.20;;;3.60;;
30127;SDS011;16942;53.196;6.592;2022-12-24T14:41:08;25.80;;;4.00;;
30127;SDS011;16942;53.196;6.592;2022-12-24T14:43:51;19.03;;;3.67;;
30127;SDS011;16942;53.196;6.592;2022-12-24T14:46:32;12.33;;;3.63;;
30127;SDS011;16942;53.196;6.592;2022-12-24T14:57:11;19.50;;;2.93;;
30127;SDS011;16942;53.196;6.592;2022-12-24T14:59:46;16.53;;;3.10;;
30127;SDS011;16942;53.196;6.592;2022-12-24T15:02:29;17.97;;;3.37;;
30127;SDS011;16942;53.196;6.592;2022-12-24T15:07:38;16.50;;;3.20;;
30127;SDS011;16942;53.196;6.592;2022-12-24T15:10:06;25.70;;;4.50;;
30127;SDS011;16942;53.196;6.592;2022-12-24T15:12:33;20.53;;;3.17;;
30127;SDS011;16942;53.196;6.592;2022-12-24T15:14:59;14.40;;;3.03;;
30127;SDS011;16942;53.196;6.592;2022-12-24T15:17:25;15.33;;;2.93;;
30127;SDS011;16942;53.196;6.592;2022-12-24T15:19:52;17.37;;;4.30;;
30127;SDS011;16942;53.196;6.592;2022-12-24T15:22:24;19.63;;;3.27;;
30127;SDS011;16942;53.196;6.592;2022-12-24T15:24:51;12.63;;;3.00;;
30127;SDS011;16942;53.196;6.592;2022-12-24T15:27:22;10.73;;;2.87;;
30127;SDS011;16942;53.196;6.592;2022-12-24T15:29:49;17.87;;;3.97;;
30127;SDS011;16942;53.196;6.592;2022-12-24T15:32:16;21.57;;;3.77;;
30127;SDS011;16942;53.196;6.592;2022-12-24T15:34:47;16.63;;;3.23;;
30127;SDS011;16942;53.196;6.592;2022-12-24T15:37:23;21.73;;;4.03;;
30127;SDS011;16942;53.196;6.592;2022-12-24T15:39:54;20.97;;;3.50;;
30127;SDS011;16942;53.196;6.592;2022-12-24T15:42:20;13.77;;;3.20;;
30127;SDS011;16942;53.196;6.592;2022-12-24T15:47:29;15.53;;;3.00;;
30127;SDS011;16942;53.196;6.592;2022-12-24T15:50:02;13.17;;;3.77;;
30127;SDS011;16942;53.196;6.592;2022-12-24T15:52:28;21.37;;;3.83;;
30127;SDS011;16942;53.196;6.592;2022-12-24T15:54:54;16.17;;;4.17;;
30127;SDS011;16942;53.196;6.592;2022-12-24T15:59:53;15.43;;;3.50;;
30127;SDS011;16942;53.196;6.592;2022-12-24T16:04:51;20.63;;;3.90;;
30127;SDS011;16942;53.196;6.592;2022-12-24T16:07:24;17.57;;;3.60;;
30127;SDS011;16942;53.196;6.592;2022-12-24T16:10:31;22.67;;;3.77;;
30127;SDS011;16942;53.196;6.592;2022-12-24T16:12:57;19.70;;;5.10;;
30127;SDS011;16942;53.196;6.592;2022-12-24T16:15:23;20.93;;;4.17;;
30127;SDS011;16942;53.196;6.592;2022-12-24T16:17:49;18.50;;;3.90;;
30127;SDS011;16942;53.196;6.592;2022-12-24T16:20:18;19.77;;;5.53;;
30127;SDS011;16942;53.196;6.592;2022-12-24T16:22:45;17.03;;;5.23;;
30127;SDS011;16942;53.196;6.592;2022-12-24T16:25:22;20.27;;;4.93;;
30127;SDS011;16942;53.196;6.592;2022-12-24T16:27:49;16.60;;;5.13;;
30127;SDS011;16942;53.196;6.592;2022-12-24T16:30:15;16.27;;;3.33;;
30127;SDS011;16942;53.196;6.592;2022-12-24T16:32:42;12.47;;;3.70;;
30127;SDS011;16942;53.196;6.592;2022-12-24T16:35:27;16.47;;;4.27;;
30127;SDS011;16942;53.196;6.592;2022-12-24T16:37:53;14.50;;;4.10;;
30127;SDS011;16942;53.196;6.592;2022-12-24T16:40:20;17.80;;;3.80;;
30127;SDS011;16942;53.196;6.592;2022-12-24T16:42:46;24.37;;;6.03;;
30127;SDS011;16942;53.196;6.592;2022-12-24T16:45:30;26.03;;;6.30;;
30127;SDS011;16942;53.196;6.592;2022-12-24T16:47:58;24.57;;;5.70;;